Aeroporto :
LOGIN :

Iscrizione | Disclaimer

   EN    FR    IT 

 










Sommario :    VFR   VFR Marginale   IFR   IFR Intensivo   IFR Molto Intensivo
Visibilità : 
Base nubi : 
>= 8 km
>= 3000ft
5 / 8 km
1000 / 3000 ft
1500m / 5 km
500 / 1000 ft
800 / 1500m
200 / 500 ft
< 800m
< 200 ft
Simboli :   Temporali  Nebbia  Neve Forte  Precipitazioni Forti  Vento > 20 kt
SIGMETs :   Varie  Temporali  Ghiacco  Turbolenza  Onda orograficha  Ceneri Vulcaniche






- Altitudine del aeroporto : 14 ft
- Codice IATA : BRE


EDDW - Bremen Neuenland

ULTIMO METAR :
  • 230120Z 11011KT 080V150 9000 BKN007 06/05 Q1005

METARs OBSOLETI :
  • 230050Z 11010KT 080V140 9999 BKN007 06/04 Q1006
  • 230020Z 11009KT 080V140 9999 BKN008 06/04 Q1006
  • 222350Z 12010KT 9999 OVC008 06/04 Q1006
  • 222320Z 12008KT 080V140 9999 OVC007 05/04 Q1006
  • 222250Z 11009KT 9999 OVC007 05/04 Q1006

TAF TAF EDDW
Valido dal 23 a 00 ore il 24 a 00 ore UTC


222300Z 2300/2324 10008KT 9000 BKN006
TEMPO 2300/2309 3500 BR BKN004
PROB30
TEMPO 2302/2308 1200 BR BKN001
BECMG 2308/2311 10014KT BKN012
TEMPO 2310/2315 10015G25KT
BECMG 2311/2313 BKN015
BECMG 2315/2318 09009KT
PROB40
TEMPO 2317/2322 BKN013
TEMPO 2322/2324 BKN006



MetMap, La meteo Aeronautica in un colpo d'occhio ! - Copyright ORBIFLY Dicembre 2007 - Disclaimer

ORBIFLY MET'MAP TEAM :

Programmazione e sviluppo : Alexandra Zaïnal
Concezione e sviluppo : Baudouin d'Aumeries
Co-Programmazione e sviluppo : Marc-Olivier Méhu
Supporto tecnico e logistico : Manuel Goepfert
Aiuto per la traduzione : Arnaldo La Scala

Contatto : metmap@orbifly.com




FONTI E CREDITI :

   NOAA